createdAt,value
2022-08-28T00:02:03.568Z,22.95
2022-08-28T00:04:31.039Z,18.92
2022-08-28T00:06:58.772Z,20.33
2022-08-28T00:09:26.317Z,17.85
2022-08-28T00:11:54.534Z,18.60
2022-08-28T00:14:23.444Z,20.38
2022-08-28T00:16:52.601Z,23.55
2022-08-28T00:19:20.665Z,22.52
2022-08-28T00:21:48.100Z,20.77
2022-08-28T00:24:15.482Z,28.63
2022-08-28T00:27:01.695Z,22.60
2022-08-28T00:29:29.575Z,21.98
2022-08-28T00:31:56.916Z,21.38
2022-08-28T00:34:28.483Z,21.05
2022-08-28T00:37:01.515Z,24.00
2022-08-28T00:39:29.031Z,22.67
2022-08-28T00:41:58.012Z,21.25
2022-08-28T00:44:27.752Z,29.63
2022-08-28T00:46:57.014Z,19.95
2022-08-28T00:49:26.849Z,20.27
2022-08-28T00:52:11.897Z,21.08
2022-08-28T00:54:56.826Z,16.88
2022-08-28T00:57:34.139Z,20.30
2022-08-28T01:00:01.745Z,22.88
2022-08-28T01:02:29.742Z,20.75
2022-08-28T01:04:57.030Z,25.67
2022-08-28T01:07:24.213Z,19.63
2022-08-28T01:09:54.164Z,21.05
2022-08-28T01:12:25.664Z,22.40
2022-08-28T01:14:57.938Z,21.75
2022-08-28T01:17:26.643Z,22.02
2022-08-28T01:19:58.475Z,16.92
2022-08-28T01:22:59.630Z,20.70
2022-08-28T01:25:28.619Z,20.05
2022-08-28T01:27:56.500Z,14.65
2022-08-28T01:30:24.609Z,21.80
2022-08-28T01:32:54.897Z,20.58
2022-08-28T01:35:26.434Z,21.63
2022-08-28T01:37:55.808Z,18.58
2022-08-28T01:40:37.962Z,18.20
2022-08-28T01:43:20.902Z,22.00
2022-08-28T01:45:55.940Z,21.33
2022-08-28T01:48:25.708Z,24.50
2022-08-28T01:50:53.835Z,24.17
2022-08-28T01:53:24.984Z,21.73
2022-08-28T01:55:54.265Z,26.30
2022-08-28T01:58:22.819Z,22.45
2022-08-28T02:00:53.710Z,26.77
2022-08-28T02:03:22.853Z,25.92
2022-08-28T02:05:50.694Z,23.02
2022-08-28T02:08:18.439Z,20.42
2022-08-28T02:10:46.322Z,17.90
2022-08-28T02:13:13.832Z,19.98
2022-08-28T02:15:42.908Z,23.70
2022-08-28T02:18:10.840Z,21.20
2022-08-28T02:20:38.378Z,20.98
2022-08-28T02:23:06.858Z,21.80
2022-08-28T02:25:34.282Z,24.35
2022-08-28T02:28:01.529Z,18.25
2022-08-28T02:30:28.785Z,20.25
2022-08-28T02:32:56.547Z,18.27
2022-08-28T02:35:24.353Z,21.27
2022-08-28T02:37:51.959Z,22.08
2022-08-28T02:40:23.908Z,16.45
2022-08-28T02:42:52.290Z,25.52
2022-08-28T02:45:20.615Z,22.63
2022-08-28T02:47:48.759Z,19.73
2022-08-28T02:50:17.759Z,20.45
2022-08-28T02:52:46.489Z,16.88
2022-08-28T02:55:15.925Z,21.60
2022-08-28T02:57:43.553Z,19.05
2022-08-28T03:00:13.809Z,21.80
2022-08-28T03:02:42.248Z,19.95
2022-08-28T03:05:10.716Z,23.42
2022-08-28T03:07:38.043Z,19.75
2022-08-28T03:10:07.448Z,22.58
2022-08-28T03:12:35.031Z,25.73
2022-08-28T03:15:02.700Z,19.02
2022-08-28T03:17:30.649Z,24.33
2022-08-28T03:19:57.924Z,17.98
2022-08-28T03:22:44.172Z,18.80
2022-08-28T03:25:12.533Z,21.65
2022-08-28T03:27:39.906Z,21.42
2022-08-28T03:30:08.210Z,17.95
2022-08-28T03:32:36.003Z,18.85
2022-08-28T03:35:05.461Z,26.42
2022-08-28T03:37:32.620Z,22.77
2022-08-28T03:40:00.732Z,20.35
2022-08-28T03:42:27.995Z,20.70
2022-08-28T03:44:55.396Z,18.25
2022-08-28T03:47:24.763Z,21.27
2022-08-28T03:49:58.633Z,21.02
2022-08-28T03:52:26.339Z,20.23
2022-08-28T03:54:53.770Z,17.67
2022-08-28T03:57:22.938Z,17.38
2022-08-28T03:59:52.638Z,21.20
2022-08-28T04:02:20.775Z,20.55
2022-08-28T04:04:49.363Z,27.30
2022-08-28T04:07:18.218Z,19.00
2022-08-28T04:09:45.877Z,20.92
2022-08-28T04:12:14.490Z,24.60
2022-08-28T04:14:42.118Z,17.38
2022-08-28T04:17:10.250Z,19.20
2022-08-28T04:19:38.166Z,22.40
2022-08-28T04:22:05.825Z,21.83
2022-08-28T04:24:33.303Z,23.40
2022-08-28T04:27:00.465Z,21.40
2022-08-28T04:29:29.899Z,17.38
2022-08-28T04:31:58.321Z,17.08
2022-08-28T04:34:25.703Z,26.88
2022-08-28T04:36:54.191Z,22.55
2022-08-28T04:39:21.638Z,22.08
2022-08-28T04:41:50.301Z,17.52
2022-08-28T04:44:17.931Z,27.90
2022-08-28T04:46:45.120Z,21.90
2022-08-28T04:49:16.238Z,17.10
2022-08-28T04:51:43.839Z,16.98
2022-08-28T04:54:14.487Z,15.23
2022-08-28T04:56:41.703Z,19.48
2022-08-28T04:59:10.375Z,16.27
2022-08-28T05:01:38.043Z,17.67
2022-08-28T05:04:05.290Z,19.23
2022-08-28T05:06:33.658Z,23.30
2022-08-28T05:09:03.546Z,17.33
2022-08-28T05:11:34.147Z,18.42
2022-08-28T05:14:05.050Z,17.27
2022-08-28T05:16:34.814Z,18.15
2022-08-28T05:19:03.335Z,18.90
2022-08-28T05:21:30.795Z,18.50
2022-08-28T05:23:59.225Z,18.25
2022-08-28T05:26:28.244Z,19.25
2022-08-28T05:28:57.173Z,21.42
2022-08-28T05:31:25.254Z,14.90
2022-08-28T05:33:53.590Z,16.35
2022-08-28T05:36:25.907Z,22.48
2022-08-28T05:39:00.363Z,14.35
2022-08-28T05:41:33.008Z,18.40
2022-08-28T05:44:03.979Z,19.30
2022-08-28T05:46:31.845Z,17.58
2022-08-28T05:49:00.493Z,19.40
2022-08-28T05:51:28.761Z,23.85
2022-08-28T05:53:57.929Z,22.23
2022-08-28T05:56:32.833Z,22.48
2022-08-28T05:59:02.343Z,19.75
2022-08-28T06:01:32.232Z,19.85
2022-08-28T06:04:01.981Z,22.42
2022-08-28T06:06:31.679Z,23.23
2022-08-28T06:09:01.453Z,18.80
2022-08-28T06:11:30.764Z,28.65
2022-08-28T06:14:02.439Z,24.30
2022-08-28T06:16:32.205Z,26.90
2022-08-28T06:19:00.830Z,21.85
2022-08-28T06:21:29.185Z,19.65
2022-08-28T06:23:56.451Z,24.10
2022-08-28T06:26:24.019Z,16.83
2022-08-28T06:28:53.309Z,22.08
2022-08-28T06:31:24.731Z,16.20
2022-08-28T06:33:55.050Z,26.40
2022-08-28T06:36:23.262Z,16.48
2022-08-28T06:38:51.116Z,17.90
2022-08-28T06:41:19.873Z,16.63
2022-08-28T06:43:47.177Z,16.88
2022-08-28T06:46:14.473Z,17.10
2022-08-28T06:48:42.221Z,21.83
2022-08-28T06:51:11.953Z,20.42
2022-08-28T06:53:41.061Z,14.07
2022-08-28T06:56:25.522Z,19.00
2022-08-28T06:58:56.753Z,16.58
2022-08-28T07:01:29.396Z,15.00
2022-08-28T07:04:00.118Z,16.33
2022-08-28T07:06:28.732Z,27.88
2022-08-28T07:08:55.980Z,16.85
2022-08-28T07:11:26.857Z,15.60
2022-08-28T07:13:55.393Z,18.35
2022-08-28T07:16:29.640Z,15.98
2022-08-28T07:18:57.573Z,16.98
2022-08-28T07:21:25.704Z,17.88
2022-08-28T07:23:53.506Z,24.85
2022-08-28T07:26:23.723Z,18.15
2022-08-28T07:28:53.503Z,12.68
2022-08-28T07:31:40.201Z,19.88
2022-08-28T07:34:08.742Z,19.30
2022-08-28T07:36:36.011Z,17.23
2022-08-28T07:39:05.369Z,18.35
2022-08-28T07:41:35.644Z,20.85
2022-08-28T07:44:21.853Z,16.42
2022-08-28T07:46:54.595Z,11.57
2022-08-28T07:49:22.314Z,18.80
2022-08-28T07:51:49.953Z,12.82
2022-08-28T07:54:23.111Z,14.88
2022-08-28T07:56:50.889Z,12.98
2022-08-28T07:59:19.277Z,12.45
2022-08-28T08:01:48.876Z,20.65
2022-08-28T08:04:17.487Z,19.05
2022-08-28T08:06:45.328Z,16.90
2022-08-28T08:09:16.241Z,14.05
2022-08-28T08:11:43.812Z,17.73
2022-08-28T08:14:12.112Z,26.40
2022-08-28T08:16:42.608Z,22.30
2022-08-28T08:19:14.091Z,15.25
2022-08-28T08:21:53.223Z,13.80
2022-08-28T08:24:25.935Z,15.25
2022-08-28T08:27:00.080Z,20.88
2022-08-28T08:29:31.577Z,15.07
2022-08-28T08:32:05.549Z,37.35
2022-08-28T08:34:39.898Z,18.23
2022-08-28T08:37:07.982Z,17.40
2022-08-28T08:39:36.192Z,14.50
2022-08-28T08:42:21.493Z,21.73
2022-08-28T08:44:52.193Z,15.70
2022-08-28T08:47:49.330Z,12.52
2022-08-28T08:50:21.005Z,13.70
2022-08-28T08:52:55.613Z,16.00
2022-08-28T08:55:31.749Z,14.85
2022-08-28T08:58:15.883Z,14.40
2022-08-28T09:01:04.347Z,21.15
2022-08-28T09:03:56.342Z,17.67
2022-08-28T09:06:33.510Z,13.00
2022-08-28T09:09:04.040Z,18.85
2022-08-28T09:11:35.677Z,18.48
2022-08-28T09:14:17.060Z,24.00
2022-08-28T09:16:48.396Z,22.10
2022-08-28T09:19:20.459Z,19.25
2022-08-28T09:21:49.550Z,19.88
2022-08-28T09:24:29.041Z,16.13
2022-08-28T09:26:59.527Z,16.75
2022-08-28T09:29:43.508Z,11.90
2022-08-28T09:32:25.264Z,17.05
2022-08-28T09:35:19.278Z,15.00
2022-08-28T09:37:46.667Z,15.68
2022-08-28T09:40:48.475Z,16.95
2022-08-28T09:43:27.558Z,16.60
2022-08-28T09:46:02.802Z,19.00
2022-08-28T09:48:44.450Z,21.17
2022-08-28T09:51:29.476Z,22.27
2022-08-28T09:54:05.296Z,14.68
2022-08-28T09:56:40.131Z,14.45
2022-08-28T09:59:13.171Z,17.73
2022-08-28T10:01:51.129Z,18.58
2022-08-28T10:04:24.116Z,16.00
2022-08-28T10:06:55.407Z,17.20
2022-08-28T10:09:34.625Z,12.15
2022-08-28T10:12:11.493Z,17.30
2022-08-28T10:14:49.090Z,15.85
2022-08-28T10:17:55.646Z,15.18
2022-08-28T10:21:00.314Z,13.02
2022-08-28T10:23:46.394Z,14.60
2022-08-28T10:26:32.789Z,14.80
2022-08-28T10:29:30.309Z,14.65
2022-08-28T10:32:21.638Z,11.57
2022-08-28T10:35:03.580Z,15.05
2022-08-28T10:37:37.015Z,24.65
2022-08-28T10:40:11.784Z,12.45
2022-08-28T10:42:44.609Z,12.68
2022-08-28T10:45:14.782Z,11.65
2022-08-28T10:47:46.443Z,10.82
2022-08-28T10:50:26.699Z,19.67
2022-08-28T10:52:58.750Z,12.82
2022-08-28T10:55:34.791Z,13.05
2022-08-28T10:58:24.556Z,11.90
2022-08-28T11:01:05.428Z,18.48
2022-08-28T11:03:40.714Z,11.95
2022-08-28T11:06:34.020Z,12.30
2022-08-28T11:09:24.874Z,14.73
2022-08-28T11:12:01.735Z,14.65
2022-08-28T11:14:47.881Z,11.52
2022-08-28T11:17:21.906Z,19.67
2022-08-28T11:20:16.071Z,10.75
2022-08-28T11:22:48.997Z,11.52
2022-08-28T11:25:26.706Z,10.85
2022-08-28T11:28:22.503Z,8.15
2022-08-28T11:31:19.111Z,16.88
2022-08-28T11:33:59.285Z,16.77
2022-08-28T11:36:28.267Z,15.65
2022-08-28T11:38:55.666Z,10.68
2022-08-28T11:41:30.780Z,12.45
2022-08-28T11:44:13.018Z,11.13
2022-08-28T11:46:45.133Z,17.55
2022-08-28T11:49:27.398Z,15.43
2022-08-28T11:52:21.648Z,12.48
2022-08-28T11:55:14.523Z,10.70
2022-08-28T12:00:51.590Z,12.38
2022-08-28T12:03:35.845Z,15.40
2022-08-28T12:06:03.774Z,15.27
2022-08-28T12:08:59.198Z,14.05
2022-08-28T12:11:41.949Z,12.93
2022-08-28T12:14:29.650Z,10.52
2022-08-28T12:17:00.160Z,11.10
2022-08-28T12:19:56.851Z,14.55
2022-08-28T12:22:26.725Z,12.98
2022-08-28T12:24:59.895Z,18.23
2022-08-28T12:27:28.910Z,14.80
2022-08-28T12:29:58.816Z,12.88
2022-08-28T12:32:26.220Z,18.73
2022-08-28T12:34:53.401Z,11.38
2022-08-28T12:37:20.929Z,11.13
2022-08-28T12:39:48.555Z,14.20
2022-08-28T12:42:20.205Z,20.23
2022-08-28T12:44:47.966Z,13.95
2022-08-28T12:47:18.971Z,13.20
2022-08-28T12:49:47.157Z,11.00
2022-08-28T12:52:18.811Z,17.10
2022-08-28T12:54:47.529Z,17.50
2022-08-28T12:57:23.946Z,17.52
2022-08-28T12:59:54.125Z,11.80
2022-08-28T13:02:34.561Z,11.20
2022-08-28T13:05:11.851Z,9.48
2022-08-28T13:07:51.520Z,15.45
2022-08-28T13:10:38.606Z,9.85
2022-08-28T13:13:19.092Z,13.68
2022-08-28T13:15:57.171Z,18.38
2022-08-28T13:18:39.004Z,21.98
2022-08-28T13:21:33.213Z,14.60
2022-08-28T13:24:26.296Z,14.40
2022-08-28T13:27:14.333Z,9.70
2022-08-28T13:30:00.915Z,11.27
2022-08-28T13:32:30.648Z,16.00
2022-08-28T13:35:10.548Z,14.75
2022-08-28T13:37:50.195Z,14.95
2022-08-28T13:40:53.527Z,17.92
2022-08-28T13:43:11.049Z,15.05
2022-08-28T13:45:43.094Z,15.85
2022-08-28T13:48:16.634Z,15.17
2022-08-28T13:50:47.657Z,12.48
2022-08-28T13:53:18.028Z,11.23
2022-08-28T13:55:47.210Z,15.30
2022-08-28T13:58:14.820Z,10.43
2022-08-28T14:00:46.591Z,12.00
2022-08-28T14:03:32.944Z,14.02
2022-08-28T14:06:00.727Z,14.50
2022-08-28T14:08:28.309Z,16.92
2022-08-28T14:10:55.663Z,15.32
2022-08-28T14:13:26.840Z,16.13
2022-08-28T14:15:56.145Z,13.95
2022-08-28T14:18:25.830Z,16.83
2022-08-28T14:20:53.229Z,16.33
2022-08-28T14:23:20.635Z,11.20
2022-08-28T14:25:49.222Z,18.33
2022-08-28T14:28:17.303Z,11.95
2022-08-28T14:30:49.547Z,16.08
2022-08-28T14:33:20.543Z,20.63
2022-08-28T14:35:49.383Z,16.02
2022-08-28T14:38:17.359Z,18.52
2022-08-28T14:40:45.500Z,11.57
2022-08-28T14:43:14.066Z,14.07
2022-08-28T14:45:46.635Z,12.45
2022-08-28T14:48:15.086Z,16.48
2022-08-28T14:50:44.091Z,9.50
2022-08-28T14:53:13.993Z,13.48
2022-08-28T14:55:45.818Z,12.48
2022-08-28T14:58:14.798Z,7.90
2022-08-28T15:00:49.035Z,9.77
2022-08-28T15:03:18.730Z,21.52
2022-08-28T15:05:47.012Z,12.48
2022-08-28T15:08:17.128Z,11.25
2022-08-28T15:10:45.018Z,10.48
2022-08-28T15:13:13.081Z,14.70
2022-08-28T15:15:43.297Z,10.15
2022-08-28T15:18:11.573Z,13.77
2022-08-28T15:20:46.566Z,9.80
2022-08-28T15:23:15.345Z,15.43
2022-08-28T15:25:43.209Z,13.25
2022-08-28T15:28:10.973Z,15.95
2022-08-28T15:30:39.440Z,11.38
2022-08-28T15:33:09.350Z,15.00
2022-08-28T15:35:37.356Z,17.42
2022-08-28T15:38:05.779Z,14.50
2022-08-28T15:40:52.572Z,16.77
2022-08-28T15:43:20.855Z,12.32
2022-08-28T15:45:48.438Z,12.15
2022-08-28T15:48:16.241Z,16.98
2022-08-28T15:50:44.948Z,11.68
2022-08-28T15:53:12.997Z,14.95
2022-08-28T15:55:40.869Z,10.98
2022-08-28T15:58:08.905Z,13.52
2022-08-28T16:00:42.756Z,10.95
2022-08-28T16:03:10.799Z,17.88
2022-08-28T16:05:39.685Z,12.82
2022-08-28T16:08:10.602Z,11.55
2022-08-28T16:10:38.883Z,15.18
2022-08-28T16:13:08.300Z,13.02
2022-08-28T16:15:37.104Z,14.35
2022-08-28T16:18:09.311Z,10.90
2022-08-28T16:23:09.273Z,15.52
2022-08-28T16:25:41.168Z,15.05
2022-08-28T16:28:13.566Z,26.20
2022-08-28T16:30:43.851Z,49.65
2022-08-28T16:33:16.747Z,22.60
2022-08-28T16:35:56.097Z,19.58
2022-08-28T16:38:28.304Z,13.05
2022-08-28T16:40:55.754Z,18.67
2022-08-28T16:43:23.281Z,14.90
2022-08-28T16:45:51.276Z,15.18
2022-08-28T16:48:19.172Z,17.85
2022-08-28T16:50:46.717Z,14.05
2022-08-28T16:53:14.139Z,19.25
2022-08-28T16:55:47.816Z,20.15
2022-08-28T16:58:17.077Z,16.02
2022-08-28T17:00:54.833Z,18.58
2022-08-28T17:03:26.513Z,12.73
2022-08-28T17:05:56.457Z,17.35
2022-08-28T17:08:24.010Z,18.63
2022-08-28T17:10:51.898Z,15.38
2022-08-28T17:13:19.261Z,15.85
2022-08-28T17:15:46.603Z,16.42
2022-08-28T17:18:14.429Z,18.95
2022-08-28T17:21:00.483Z,22.15
2022-08-28T17:23:28.250Z,17.85
2022-08-28T17:25:56.103Z,15.68
2022-08-28T17:28:23.796Z,14.60
2022-08-28T17:30:51.469Z,18.77
2022-08-28T17:33:18.856Z,19.05
2022-08-28T17:35:46.309Z,91.13
2022-08-28T17:38:18.028Z,32.87
2022-08-28T17:40:45.408Z,26.02
2022-08-28T17:43:12.829Z,18.42
2022-08-28T17:45:40.510Z,21.83
2022-08-28T17:48:08.444Z,16.65
2022-08-28T17:50:35.777Z,15.63
2022-08-28T17:53:03.704Z,9.02
2022-08-28T17:55:31.118Z,12.85
2022-08-28T17:57:59.099Z,7.70
2022-08-28T18:00:26.647Z,10.02
2022-08-28T18:02:54.807Z,9.13
2022-08-28T18:05:22.337Z,10.50
2022-08-28T18:07:50.189Z,9.85
2022-08-28T18:10:17.691Z,8.70
2022-08-28T18:12:46.346Z,10.98
2022-08-28T18:15:15.134Z,13.43
2022-08-28T18:17:44.152Z,7.75
2022-08-28T18:20:12.491Z,7.75
2022-08-28T18:22:40.217Z,10.68
2022-08-28T18:25:08.284Z,8.85
2022-08-28T18:27:36.758Z,10.48
2022-08-28T18:30:04.897Z,13.02
2022-08-28T18:32:32.558Z,13.52
2022-08-28T18:35:00.017Z,11.80
2022-08-28T18:37:27.703Z,10.18
2022-08-28T18:39:55.479Z,11.07
2022-08-28T18:42:23.831Z,8.95
2022-08-28T18:44:51.642Z,9.07
2022-08-28T18:47:19.212Z,8.15
2022-08-28T18:49:46.840Z,8.45
2022-08-28T18:52:14.665Z,6.60
2022-08-28T18:54:42.589Z,8.70
2022-08-28T18:57:11.714Z,8.68
2022-08-28T18:59:39.581Z,9.63
2022-08-28T19:02:07.808Z,11.43
2022-08-28T19:04:36.652Z,8.95
2022-08-28T19:07:05.715Z,9.23
2022-08-28T19:09:34.898Z,9.50
2022-08-28T19:12:02.733Z,10.27
2022-08-28T19:14:30.915Z,9.98
2022-08-28T19:16:58.560Z,6.97
2022-08-28T19:19:26.488Z,8.50
2022-08-28T19:21:54.643Z,9.57
2022-08-28T19:24:22.531Z,7.30
2022-08-28T19:26:49.874Z,7.88
2022-08-28T19:29:17.758Z,7.13
2022-08-28T19:31:45.293Z,6.57
2022-08-28T19:34:13.237Z,5.38
2022-08-28T19:36:42.049Z,5.28
2022-08-28T19:39:09.525Z,5.72
2022-08-28T19:41:37.628Z,6.05
2022-08-28T19:44:06.197Z,6.57
2022-08-28T19:46:36.292Z,9.18
2022-08-28T19:49:05.091Z,6.70
2022-08-28T19:51:34.460Z,6.53
2022-08-28T19:54:03.883Z,6.20
2022-08-28T19:56:33.401Z,4.15
2022-08-28T19:59:03.197Z,4.47
2022-08-28T20:01:33.271Z,4.82
2022-08-28T20:04:00.731Z,6.72
2022-08-28T20:06:31.671Z,6.93
2022-08-28T20:08:59.602Z,3.95
2022-08-28T20:11:30.403Z,5.50
2022-08-28T20:14:04.585Z,4.32
2022-08-28T20:16:35.230Z,5.10
2022-08-28T20:19:04.062Z,6.47
2022-08-28T20:21:37.850Z,3.80
2022-08-28T20:24:13.317Z,6.47
2022-08-28T20:26:40.753Z,9.43
2022-08-28T20:29:09.071Z,5.68
2022-08-28T20:31:43.709Z,4.63
2022-08-28T20:34:12.687Z,6.55
2022-08-28T20:36:40.451Z,6.03
2022-08-28T20:39:09.397Z,6.85
2022-08-28T20:41:39.008Z,8.68
2022-08-28T20:44:07.966Z,6.68
2022-08-28T20:46:43.551Z,5.05
2022-08-28T20:49:12.328Z,5.57
2022-08-28T20:51:53.248Z,3.95
2022-08-28T20:54:26.922Z,4.50
2022-08-28T20:56:55.094Z,4.68
2022-08-28T20:59:22.521Z,4.57
2022-08-28T21:01:51.338Z,6.40
2022-08-28T21:04:18.874Z,7.72
2022-08-28T21:06:46.962Z,6.13
2022-08-28T21:09:15.239Z,6.10
2022-08-28T21:11:43.819Z,7.53
2022-08-28T21:14:12.044Z,11.50
2022-08-28T21:16:40.448Z,5.32
2022-08-28T21:19:16.691Z,4.53
2022-08-28T21:21:45.695Z,6.55
2022-08-28T21:24:15.289Z,7.22
2022-08-28T21:26:44.701Z,10.10
2022-08-28T21:29:14.112Z,28.17
2022-08-28T21:31:43.166Z,23.15
2022-08-28T21:34:11.904Z,4.70
2022-08-28T21:36:48.106Z,12.38
2022-08-28T21:39:20.863Z,4.65
2022-08-28T21:41:50.075Z,6.47
2022-08-28T21:44:18.335Z,6.80
2022-08-28T21:46:45.857Z,4.38
2022-08-28T21:49:13.525Z,6.75
2022-08-28T21:51:40.996Z,5.60
2022-08-28T21:54:08.836Z,5.15
2022-08-28T21:56:36.456Z,8.75
2022-08-28T21:59:04.325Z,5.70
2022-08-28T22:01:31.630Z,7.80
2022-08-28T22:03:59.311Z,5.82
2022-08-28T22:06:27.224Z,6.72
2022-08-28T22:08:55.672Z,6.22
2022-08-28T22:11:25.207Z,5.43
2022-08-28T22:13:54.456Z,5.90
2022-08-28T22:16:22.051Z,5.45
2022-08-28T22:18:50.144Z,6.53
2022-08-28T22:21:43.761Z,7.05
2022-08-28T22:24:12.188Z,9.48
2022-08-28T22:26:39.851Z,5.55
2022-08-28T22:29:08.102Z,6.20
2022-08-28T22:31:36.695Z,11.40
2022-08-28T22:34:06.987Z,6.47
2022-08-28T22:36:34.361Z,8.45
2022-08-28T22:39:01.783Z,9.32
2022-08-28T22:41:30.363Z,8.82
2022-08-28T22:43:58.068Z,9.15
2022-08-28T22:46:25.683Z,7.32
2022-08-28T22:48:53.233Z,8.02
2022-08-28T22:51:20.750Z,9.35
2022-08-28T22:53:48.749Z,11.30
2022-08-28T22:56:17.448Z,12.05
2022-08-28T22:58:45.183Z,12.02
2022-08-28T23:01:19.692Z,9.63
2022-08-28T23:03:47.389Z,10.98
2022-08-28T23:06:15.635Z,12.25
2022-08-28T23:08:43.002Z,10.23
2022-08-28T23:11:11.245Z,13.20
2022-08-28T23:13:39.278Z,14.80
2022-08-28T23:16:07.124Z,11.15
2022-08-28T23:18:51.642Z,13.43
2022-08-28T23:21:23.844Z,12.70
2022-08-28T23:23:55.053Z,13.27
2022-08-28T23:26:22.847Z,11.00
2022-08-28T23:28:50.241Z,12.77
2022-08-28T23:31:17.986Z,13.60
2022-08-28T23:33:45.913Z,17.10
2022-08-28T23:36:13.331Z,12.77
2022-08-28T23:38:43.096Z,15.07
2022-08-28T23:41:11.755Z,15.32
2022-08-28T23:43:41.079Z,11.63
2022-08-28T23:46:09.892Z,12.65
2022-08-28T23:48:41.431Z,12.35
2022-08-28T23:51:10.044Z,12.35
2022-08-28T23:53:40.139Z,13.68
2022-08-28T23:56:07.979Z,11.70
2022-08-28T23:58:35.624Z,16.20
